Time;durP1;ratioP1;P1;durP2;ratioP2;P2;SDS_P1;SDS_P2;PMS_P1;PMS_P2;Temp;Humidity;BMP_temperature;BMP_pressure;BME280_temperature;BME280_humidity;BME280_pressure;Samples;Min_cycle;Max_cycle;Signal;HPM_P1;HPM_P2
2022/08/26 00:04:23;;;;;;;9.93;2.65;;;18.90;7.70;;;;;;5166633;27;34192;-74
2022/08/26 00:06:49;;;;;;;2.85;2.30;;;18.80;7.50;;;;;;5149387;27;34331;-75
2022/08/26 00:09:16;;;;;;;3.10;2.38;;;18.80;7.80;;;;;;5148858;27;34247;-74
2022/08/26 00:11:43;;;;;;;2.47;2.28;;;18.70;7.80;;;;;;5166502;27;34568;-74
2022/08/26 00:14:09;;;;;;;2.58;2.22;;;18.70;8.00;;;;;;5149088;27;34375;-74
2022/08/26 00:16:35;;;;;;;4.28;2.38;;;18.70;8.00;;;;;;5148452;27;35690;-74
2022/08/26 00:19:01;;;;;;;2.90;2.33;;;18.60;8.00;;;;;;5146978;27;34027;-74
2022/08/26 00:21:27;;;;;;;3.25;2.90;;;18.60;8.20;;;;;;5149219;27;34285;-74
2022/08/26 00:23:53;;;;;;;5.80;2.42;;;18.60;8.40;;;;;;5167517;27;34042;-75
2022/08/26 00:26:19;;;;;;;3.88;2.95;;;18.50;8.60;;;;;;5167253;27;34982;-74
2022/08/26 00:28:45;;;;;;;3.03;2.60;;;18.50;8.50;;;;;;5167355;27;34099;-74
2022/08/26 00:31:11;;;;;;;4.13;2.85;;;18.50;8.70;;;;;;5148766;27;34512;-74
2022/08/26 00:33:38;;;;;;;2.97;2.53;;;18.40;8.80;;;;;;5149771;27;34193;-74
2022/08/26 00:36:05;;;;;;;2.47;2.28;;;18.40;8.90;;;;;;5166847;27;34158;-74
2022/08/26 00:38:31;;;;;;;5.97;2.90;;;18.40;9.00;;;;;;5131340;27;34019;-74
2022/08/26 00:40:57;;;;;;;3.47;2.80;;;18.30;9.10;;;;;;5148582;27;34239;-74
2022/08/26 00:43:25;;;;;;;4.00;2.45;;;18.20;9.10;;;;;;5167623;27;33987;-74
2022/08/26 00:46:05;;;;;;;4.32;2.63;;;18.20;9.40;;;;;;5147743;27;35568;-74
2022/08/26 00:48:32;;;;;;;2.83;2.53;;;18.20;10.30;;;;;;5148221;27;34054;-74
2022/08/26 00:51:06;;;;;;;3.45;2.50;;;18.20;9.40;;;;;;5131315;27;34164;-74
2022/08/26 00:53:38;;;;;;;3.63;2.70;;;18.10;10.00;;;;;;5132112;27;34345;-74
2022/08/26 00:56:14;;;;;;;4.00;2.72;;;18.10;10.70;;;;;;5130743;27;36125;-75
2022/08/26 00:58:41;;;;;;;7.00;2.85;;;18.10;11.00;;;;;;5148054;27;34123;-75
2022/08/26 01:01:09;;;;;;;4.82;2.58;;;18.00;9.70;;;;;;5166631;27;34021;-74
2022/08/26 01:03:37;;;;;;;3.35;2.65;;;18.00;9.90;;;;;;5148215;27;34854;-74
2022/08/26 01:06:05;;;;;;;2.90;2.60;;;17.90;10.20;;;;;;5147616;27;36597;-74
2022/08/26 01:08:32;;;;;;;3.05;2.47;;;17.90;10.00;;;;;;5148177;27;34217;-74
2022/08/26 01:11:00;;;;;;;4.20;2.75;;;17.90;10.20;;;;;;5148201;27;34300;-74
2022/08/26 01:13:27;;;;;;;3.92;2.88;;;17.90;10.80;;;;;;5148507;27;34284;-74
2022/08/26 01:15:57;;;;;;;6.40;2.83;;;17.90;10.50;;;;;;5147770;27;35903;-74
2022/08/26 01:18:24;;;;;;;9.18;3.00;;;17.90;10.70;;;;;;5148781;27;34299;-75
2022/08/26 01:21:20;;;;;;;3.72;2.83;;;17.80;10.30;;;;;;5147884;27;34292;-75
2022/08/26 01:23:50;;;;;;;4.93;2.92;;;17.90;13.40;;;;;;5147915;27;34167;-74
2022/08/26 01:26:21;;;;;;;3.60;2.67;;;17.80;11.20;;;;;;5147653;27;34133;-74
2022/08/26 01:28:50;;;;;;;6.28;2.80;;;17.80;11.50;;;;;;5148437;27;34219;-75
2022/08/26 01:31:21;;;;;;;5.60;3.08;;;17.80;11.10;;;;;;5109971;27;34140;-75
2022/08/26 01:34:00;;;;;;;4.32;3.08;;;17.80;11.00;;;;;;5145494;27;34417;-74
2022/08/26 01:36:27;;;;;;;4.20;3.08;;;17.90;12.10;;;;;;5152546;27;34602;-74
2022/08/26 01:38:53;;;;;;;3.75;2.80;;;17.80;10.90;;;;;;5147794;27;34207;-74
2022/08/26 01:41:20;;;;;;;4.72;3.03;;;17.90;11.10;;;;;;5144081;27;34323;-74
2022/08/26 01:43:51;;;;;;;3.92;3.05;;;17.90;11.00;;;;;;5144234;27;34414;-74
2022/08/26 01:46:19;;;;;;;4.65;2.97;;;17.90;11.80;;;;;;5144255;27;35953;-76
2022/08/26 01:48:46;;;;;;;4.18;3.20;;;17.90;11.30;;;;;;5143961;27;34477;-75
2022/08/26 01:51:14;;;;;;;3.67;3.35;;;17.80;11.40;;;;;;5145451;27;34074;-74
2022/08/26 01:53:40;;;;;;;3.65;2.67;;;17.80;11.50;;;;;;5143928;27;34063;-74
2022/08/26 01:56:08;;;;;;;3.65;3.25;;;17.80;11.60;;;;;;5143317;27;35655;-75
2022/08/26 01:58:41;;;;;;;3.80;3.40;;;17.80;11.80;;;;;;5144939;27;34283;-74
2022/08/26 02:01:07;;;;;;;5.78;3.30;;;17.80;12.40;;;;;;5144748;27;34040;-74
2022/08/26 02:03:35;;;;;;;5.93;3.17;;;17.90;11.70;;;;;;5144232;27;34456;-74
2022/08/26 02:06:04;;;;;;;3.70;3.05;;;17.90;11.80;;;;;;5126264;27;35630;-74
2022/08/26 02:08:39;;;;;;;4.68;2.95;;;17.90;12.80;;;;;;5143927;27;34238;-74
2022/08/26 02:11:05;;;;;;;3.65;2.92;;;17.90;13.30;;;;;;5143878;27;34386;-74
2022/08/26 02:13:37;;;;;;;4.78;3.20;;;17.90;12.00;;;;;;5144847;27;35587;-74
2022/08/26 02:16:03;;;;;;;4.47;3.50;;;17.90;12.60;;;;;;5143592;27;35624;-75
2022/08/26 02:18:32;;;;;;;4.10;3.40;;;17.90;12.30;;;;;;5145177;27;34281;-74
2022/08/26 02:20:59;;;;;;;4.03;3.50;;;17.90;12.30;;;;;;5143703;27;34069;-74
2022/08/26 02:23:25;;;;;;;3.97;3.47;;;17.90;12.20;;;;;;5123187;27;34173;-74
2022/08/26 02:25:59;;;;;;;3.50;3.20;;;18.00;12.20;;;;;;5122501;27;36372;-74
2022/08/26 02:28:30;;;;;;;3.90;3.40;;;18.00;13.10;;;;;;5122665;27;34260;-74
2022/08/26 02:30:56;;;;;;;3.88;3.03;;;17.90;12.80;;;;;;5122232;27;34253;-74
2022/08/26 02:33:22;;;;;;;4.85;3.40;;;18.00;12.30;;;;;;5106231;27;34068;-74
2022/08/26 02:35:48;;;;;;;5.88;3.92;;;18.10;12.50;;;;;;5134554;27;35714;-75
2022/08/26 02:38:14;;;;;;;3.85;3.40;;;18.10;12.60;;;;;;5144622;27;34099;-74
2022/08/26 02:40:42;;;;;;;4.88;3.97;;;18.10;12.60;;;;;;5143491;27;34164;-74
2022/08/26 02:43:09;;;;;;;5.25;4.10;;;18.10;12.60;;;;;;5148222;27;34262;-75
2022/08/26 02:45:35;;;;;;;5.28;4.25;;;18.20;12.60;;;;;;5146783;27;36042;-74
2022/08/26 02:48:09;;;;;;;5.90;4.15;;;18.20;12.50;;;;;;5146377;27;34453;-74
2022/08/26 02:50:35;;;;;;;6.15;3.88;;;18.30;13.70;;;;;;5146707;27;34217;-75
2022/08/26 02:53:01;;;;;;;4.60;3.95;;;18.20;12.60;;;;;;5146002;27;34152;-74
2022/08/26 02:55:27;;;;;;;8.43;4.13;;;18.30;12.90;;;;;;5147659;27;35214;-75
2022/08/26 02:57:53;;;;;;;5.25;4.35;;;18.30;12.90;;;;;;5146829;27;34119;-74
2022/08/26 03:00:19;;;;;;;5.03;4.10;;;18.40;13.00;;;;;;5147587;27;34056;-74
2022/08/26 03:02:45;;;;;;;9.77;4.20;;;18.30;13.20;;;;;;5127833;27;34536;-75
2022/08/26 03:05:12;;;;;;;6.63;4.05;;;18.40;13.10;;;;;;5145992;27;36613;-75
2022/08/26 03:07:38;;;;;;;7.07;4.28;;;18.40;13.40;;;;;;5147899;27;34202;-75
2022/08/26 03:10:05;;;;;;;6.38;4.50;;;18.40;13.20;;;;;;5122627;27;34307;-74
2022/08/26 03:12:31;;;;;;;5.30;4.40;;;18.50;13.40;;;;;;5168685;27;34167;-74
2022/08/26 03:14:57;;;;;;;5.72;4.15;;;18.50;13.30;;;;;;5168368;27;34505;-74
2022/08/26 03:17:23;;;;;;;5.97;4.30;;;18.60;13.40;;;;;;5150395;27;34057;-75
2022/08/26 03:19:49;;;;;;;7.03;4.50;;;18.60;13.40;;;;;;5133712;27;34181;-75
2022/08/26 03:22:15;;;;;;;5.63;4.68;;;18.60;13.40;;;;;;5147600;27;34223;-74
2022/08/26 03:24:41;;;;;;;5.38;4.22;;;18.60;13.40;;;;;;5124843;27;36103;-75
2022/08/26 03:27:07;;;;;;;6.65;4.28;;;18.70;13.60;;;;;;5168723;27;34148;-74
2022/08/26 03:32:15;;;;;;;6.07;4.68;;;18.70;13.60;;;;;;5168294;27;34343;-75
2022/08/26 03:34:41;;;;;;;7.68;5.00;;;18.80;13.60;;;;;;5132018;27;36145;-74
2022/08/26 03:37:07;;;;;;;5.80;4.78;;;18.80;13.80;;;;;;5147133;27;34114;-75
2022/08/26 03:39:34;;;;;;;7.63;5.32;;;18.80;13.80;;;;;;5168471;27;34113;-75
2022/08/26 03:42:00;;;;;;;6.25;4.88;;;18.80;13.80;;;;;;5168122;27;34109;-74
2022/08/26 03:44:26;;;;;;;6.40;5.30;;;18.90;14.00;;;;;;5132167;27;35788;-75
2022/08/26 03:46:53;;;;;;;8.32;5.30;;;18.90;14.00;;;;;;5131978;27;34158;-75
2022/08/26 03:49:19;;;;;;;8.80;5.63;;;18.90;14.00;;;;;;5150307;27;34075;-75
2022/08/26 03:51:46;;;;;;;8.27;6.28;;;18.90;14.00;;;;;;5167263;27;34198;-75
2022/08/26 03:54:12;;;;;;;10.38;7.10;;;19.00;14.30;;;;;;5148314;27;36040;-75
2022/08/26 03:56:38;;;;;;;10.25;6.20;;;19.00;14.40;;;;;;5168321;27;34146;-75
2022/08/26 03:59:04;;;;;;;7.07;6.25;;;19.10;14.60;;;;;;5149412;27;34224;-74
2022/08/26 04:01:30;;;;;;;7.13;6.18;;;19.10;14.50;;;;;;5167797;27;34132;-74
2022/08/26 04:03:57;;;;;;;8.63;6.63;;;19.20;14.50;;;;;;5131533;27;36893;-75
2022/08/26 04:06:29;;;;;;;8.30;6.63;;;19.20;14.40;;;;;;5168133;27;34366;-75
2022/08/26 04:08:56;;;;;;;10.98;7.45;;;19.30;15.00;;;;;;5131753;27;34099;-74
2022/08/26 04:11:27;;;;;;;10.70;7.38;;;19.30;14.40;;;;;;5149310;27;34101;-75
2022/08/26 04:13:53;;;;;;;10.50;6.80;;;19.30;14.40;;;;;;5148780;27;35763;-74
2022/08/26 04:16:19;;;;;;;8.57;6.50;;;19.40;14.30;;;;;;5132604;27;34046;-75
2022/08/26 04:18:45;;;;;;;7.75;6.45;;;19.40;14.40;;;;;;5149579;27;34100;-75
2022/08/26 04:21:11;;;;;;;10.43;6.72;;;19.40;14.50;;;;;;5148657;27;34240;-75
2022/08/26 04:23:38;;;;;;;8.70;6.70;;;19.50;14.60;;;;;;5110756;27;35707;-74
2022/08/26 04:26:04;;;;;;;8.80;7.00;;;19.50;14.60;;;;;;5146579;27;34411;-75
2022/08/26 04:28:30;;;;;;;10.57;6.97;;;19.50;14.60;;;;;;5111066;27;34348;-75
2022/08/26 04:30:56;;;;;;;9.32;6.88;;;19.50;14.70;;;;;;5139509;27;34104;-75
2022/08/26 04:33:23;;;;;;;11.40;7.72;;;19.50;14.70;;;;;;5131284;27;35540;-75
2022/08/26 04:35:49;;;;;;;8.27;7.05;;;19.50;14.80;;;;;;5167554;27;34088;-75
2022/08/26 04:38:15;;;;;;;9.55;7.40;;;19.50;14.70;;;;;;5148921;27;34134;-75
2022/08/26 04:40:44;;;;;;;10.73;7.45;;;19.50;14.80;;;;;;5167230;27;34326;-75
2022/08/26 04:43:10;;;;;;;12.82;7.95;;;19.60;15.00;;;;;;5148202;27;36360;-74
2022/08/26 04:45:37;;;;;;;10.48;7.95;;;19.60;14.80;;;;;;5167086;27;34036;-74
2022/08/26 04:48:03;;;;;;;10.45;8.13;;;19.60;15.10;;;;;;5167401;27;34193;-74
2022/08/26 04:50:29;;;;;;;14.85;7.97;;;19.60;15.10;;;;;;5167320;27;34192;-75
2022/08/26 04:52:55;;;;;;;12.25;8.57;;;19.60;15.10;;;;;;5130533;27;35638;-74
2022/08/26 04:55:21;;;;;;;14.32;8.85;;;19.60;15.10;;;;;;5148397;27;34270;-74
2022/08/26 04:57:48;;;;;;;9.98;8.63;;;19.60;15.10;;;;;;5159006;27;34157;-74
2022/08/26 05:00:14;;;;;;;12.07;7.88;;;19.60;15.20;;;;;;5146317;27;34094;-75
2022/08/26 05:02:40;;;;;;;14.70;10.55;;;19.70;15.20;;;;;;5123935;27;35585;-74
2022/08/26 05:05:06;;;;;;;15.52;9.40;;;19.70;15.40;;;;;;5123896;27;34362;-74
2022/08/26 05:07:34;;;;;;;14.00;9.52;;;19.70;15.50;;;;;;5128529;27;34181;-75
2022/08/26 05:10:01;;;;;;;19.67;9.80;;;19.70;15.80;;;;;;5142161;27;34500;-74
2022/08/26 05:12:29;;;;;;;21.45;10.75;;;19.70;15.80;;;;;;5139353;27;36514;-74
2022/08/26 05:14:55;;;;;;;24.95;11.10;;;19.70;16.10;;;;;;5141432;27;34117;-75
2022/08/26 05:17:21;;;;;;;24.98;16.60;;;19.80;15.90;;;;;;5166522;27;34299;-75
2022/08/26 05:19:49;;;;;;;21.15;12.73;;;19.80;16.10;;;;;;5166208;27;34464;-74
2022/08/26 05:22:16;;;;;;;22.45;13.85;;;19.80;16.30;;;;;;5130687;27;35498;-75
2022/08/26 05:24:42;;;;;;;23.60;13.05;;;19.80;16.50;;;;;;5165891;27;34178;-74
2022/08/26 05:27:09;;;;;;;22.67;13.25;;;19.80;16.70;;;;;;5166414;27;34111;-75
2022/08/26 05:29:35;;;;;;;21.42;14.25;;;19.90;16.50;;;;;;5148055;27;34580;-75
2022/08/26 05:32:01;;;;;;;18.60;13.52;;;19.90;16.70;;;;;;5166091;27;35187;-74
2022/08/26 05:34:27;;;;;;;24.40;17.20;;;20.00;16.80;;;;;;5147006;27;34211;-74
2022/08/26 05:36:53;;;;;;;24.95;19.15;;;20.00;17.20;;;;;;5148239;27;34281;-75
2022/08/26 05:39:22;;;;;;;23.52;18.33;;;20.10;17.60;;;;;;5166233;27;34032;-75
2022/08/26 05:41:48;;;;;;;27.23;19.65;;;20.30;17.60;;;;;;5147857;27;34350;-74
2022/08/26 05:44:17;;;;;;;24.50;17.90;;;20.40;17.50;;;;;;5148110;27;34955;-75
2022/08/26 05:46:44;;;;;;;26.20;17.83;;;20.50;17.60;;;;;;5148638;27;34163;-75
2022/08/26 05:49:13;;;;;;;24.90;18.08;;;20.60;17.50;;;;;;5165949;27;34260;-75
2022/08/26 05:51:40;;;;;;;23.90;17.48;;;20.70;17.60;;;;;;5147179;27;36125;-74
2022/08/26 05:54:06;;;;;;;26.77;17.25;;;20.80;17.40;;;;;;5165236;27;34077;-75
2022/08/26 05:56:32;;;;;;;27.80;17.05;;;20.90;17.30;;;;;;5126459;27;34270;-74
2022/08/26 05:59:01;;;;;;;24.25;16.58;;;21.10;17.40;;;;;;5140979;27;34331;-75
2022/08/26 06:01:28;;;;;;;22.45;16.00;;;21.20;17.10;;;;;;5165572;27;34398;-74
2022/08/26 06:03:59;;;;;;;24.27;16.35;;;21.30;17.20;;;;;;5147387;27;34268;-75
2022/08/26 06:06:28;;;;;;;22.92;15.73;;;21.40;17.20;;;;;;5147964;27;34327;-75
2022/08/26 06:08:57;;;;;;;21.35;15.18;;;21.50;17.00;;;;;;5147193;27;34546;-75
2022/08/26 06:11:25;;;;;;;20.38;14.40;;;21.60;16.90;;;;;;5166032;27;34379;-75
2022/08/26 06:13:53;;;;;;;19.95;15.55;;;21.60;16.90;;;;;;5130197;27;34309;-75
2022/08/26 06:16:22;;;;;;;19.90;14.32;;;21.70;16.80;;;;;;5168380;27;34160;-74
2022/08/26 06:18:49;;;;;;;26.50;13.70;;;21.80;16.70;;;;;;5150790;27;34408;-75
2022/08/26 06:21:20;;;;;;;19.63;13.55;;;21.90;16.50;;;;;;5150559;27;36472;-75
2022/08/26 06:26:30;;;;;;;17.00;12.95;;;22.20;16.30;;;;;;5168592;27;34366;-75
2022/08/26 06:28:57;;;;;;;16.23;13.15;;;22.30;16.60;;;;;;5149547;27;34298;-75
2022/08/26 06:31:24;;;;;;;20.88;12.68;;;22.40;15.80;;;;;;5118464;27;35561;-75
2022/08/26 06:33:50;;;;;;;19.00;12.77;;;22.60;15.70;;;;;;5108194;27;34168;-76
2022/08/26 06:36:20;;;;;;;18.52;12.02;;;22.70;15.50;;;;;;5146980;27;34330;-74
2022/08/26 06:38:48;;;;;;;17.95;11.43;;;22.90;15.60;;;;;;5126554;27;34161;-75
2022/08/26 06:41:15;;;;;;;16.17;11.25;;;23.10;15.10;;;;;;5131160;27;34216;-75
2022/08/26 06:43:41;;;;;;;18.70;11.10;;;23.20;14.80;;;;;;5147238;27;34181;-75
2022/08/26 06:46:10;;;;;;;14.35;10.20;;;23.50;14.50;;;;;;5147790;27;34292;-75
2022/08/26 06:48:36;;;;;;;11.35;9.90;;;23.80;14.20;;;;;;5148393;27;34093;-77
2022/08/26 06:51:06;;;;;;;14.77;10.15;;;24.10;13.70;;;;;;5129328;27;35975;-75
2022/08/26 06:53:32;;;;;;;15.50;10.13;;;24.30;13.40;;;;;;5129462;27;34146;-75
2022/08/26 06:56:01;;;;;;;11.85;8.77;;;24.40;13.10;;;;;;5130289;27;34094;-76
2022/08/26 06:58:27;;;;;;;14.55;9.20;;;24.50;12.80;;;;;;5130357;27;34157;-77
2022/08/26 07:00:53;;;;;;;11.18;8.43;;;24.60;12.60;;;;;;5112459;27;36319;-75
2022/08/26 07:03:20;;;;;;;12.98;8.63;;;24.70;12.50;;;;;;5169286;27;34196;-76
2022/08/26 07:05:48;;;;;;;11.20;8.30;;;24.80;12.40;;;;;;5169122;27;34098;-76
2022/08/26 07:08:14;;;;;;;10.88;8.48;;;24.80;12.30;;;;;;5150761;27;34139;-76
2022/08/26 07:10:41;;;;;;;12.18;9.45;;;24.90;12.20;;;;;;5169023;27;34776;-77
2022/08/26 07:13:07;;;;;;;12.82;8.13;;;24.90;12.10;;;;;;5150474;27;34406;-77
2022/08/26 07:15:34;;;;;;;11.50;8.15;;;25.00;12.00;;;;;;5133166;27;34283;-76
2022/08/26 07:18:01;;;;;;;10.85;8.40;;;25.10;11.80;;;;;;5150482;27;34525;-75
2022/08/26 07:20:28;;;;;;;11.38;8.02;;;25.10;11.70;;;;;;5149584;27;36808;-78
2022/08/26 07:22:54;;;;;;;11.32;8.05;;;25.20;11.50;;;;;;5128897;27;34222;-76
2022/08/26 07:25:20;;;;;;;12.52;8.30;;;25.20;11.30;;;;;;5112202;27;34153;-76
2022/08/26 07:27:46;;;;;;;10.07;7.07;;;25.30;11.10;;;;;;5152190;27;33995;-76
2022/08/26 07:30:13;;;;;;;8.85;7.45;;;25.40;10.90;;;;;;5136441;27;35799;-77
2022/08/26 07:32:38;;;;;;;9.60;7.70;;;25.50;10.90;;;;;;5131596;27;34157;-76
2022/08/26 07:35:05;;;;;;;9.52;7.35;;;25.60;10.50;;;;;;5132195;27;34234;-78
2022/08/26 07:37:31;;;;;;;10.38;7.68;;;25.80;10.20;;;;;;5126543;27;34529;-75
2022/08/26 07:39:57;;;;;;;12.32;6.75;;;25.90;10.00;;;;;;5146515;27;35729;-76
2022/08/26 07:42:24;;;;;;;9.35;6.88;;;26.00;10.10;;;;;;5132594;27;34480;-79
2022/08/26 07:44:50;;;;;;;12.80;6.43;;;26.20;9.90;;;;;;5133156;27;34263;-77
2022/08/26 07:47:16;;;;;;;10.75;7.22;;;26.20;9.80;;;;;;5142467;27;34387;-76
2022/08/26 07:49:42;;;;;;;8.55;6.90;;;26.30;9.70;;;;;;5148369;27;36489;-77
2022/08/26 07:52:08;;;;;;;8.38;6.47;;;26.30;9.50;;;;;;5131795;27;34474;-76
2022/08/26 07:54:36;;;;;;;7.30;6.43;;;26.40;9.20;;;;;;5132460;27;34249;-77
2022/08/26 07:57:03;;;;;;;8.85;6.40;;;26.40;9.30;;;;;;5144912;27;34358;-75
2022/08/26 07:59:29;;;;;;;7.90;5.45;;;26.40;9.00;;;;;;5148710;27;34055;-75
2022/08/26 08:01:58;;;;;;;6.93;5.47;;;26.40;9.20;;;;;;5148202;27;34544;-76
2022/08/26 08:04:24;;;;;;;7.07;5.03;;;26.40;9.30;;;;;;5166615;27;34243;-75
2022/08/26 08:06:50;;;;;;;17.90;6.65;;;26.50;9.20;;;;;;5147451;27;34545;-77
2022/08/26 08:09:16;;;;;;;9.95;5.20;;;26.40;9.10;;;;;;5128098;27;35673;-76
2022/08/26 08:11:44;;;;;;;7.38;4.90;;;26.50;9.00;;;;;;5143865;27;34316;-76
2022/08/26 08:14:11;;;;;;;7.82;4.72;;;26.50;8.90;;;;;;5146445;27;34591;-76
2022/08/26 08:16:37;;;;;;;9.70;5.63;;;26.60;8.70;;;;;;5137869;27;34415;-77
2022/08/26 08:19:03;;;;;;;8.30;5.45;;;26.80;8.60;;;;;;5143347;27;34245;-76
2022/08/26 08:21:29;;;;;;;8.75;5.28;;;26.80;8.30;;;;;;5129578;27;34581;-77
2022/08/26 08:23:56;;;;;;;8.05;5.80;;;27.00;8.60;;;;;;5135455;27;34293;-77
2022/08/26 08:26:24;;;;;;;10.68;5.07;;;27.00;9.00;;;;;;5130451;27;34665;-77
2022/08/26 08:28:53;;;;;;;8.63;5.30;;;27.00;8.30;;;;;;5148977;27;36249;-78
2022/08/26 08:31:23;;;;;;;6.30;4.50;;;27.00;8.10;;;;;;5128316;27;34364;-76
2022/08/26 08:33:49;;;;;;;4.70;4.30;;;26.90;7.70;;;;;;5160623;27;34371;-77
2022/08/26 08:36:15;;;;;;;6.80;4.60;;;26.90;8.00;;;;;;5149190;27;34599;-75
2022/08/26 08:38:43;;;;;;;6.70;5.25;;;26.80;7.80;;;;;;5146452;27;35645;-77
2022/08/26 08:41:44;;;;;;;24.38;5.68;;;26.80;7.90;;;;;;5137749;27;34177;-77
2022/08/26 08:44:18;;;;;;;9.10;4.32;;;26.80;7.20;;;;;;5129546;27;34541;-76
2022/08/26 08:46:48;;;;;;;5.90;4.30;;;26.80;7.70;;;;;;5165778;27;34061;-77
2022/08/26 08:49:14;;;;;;;9.50;4.68;;;26.80;7.60;;;;;;5145957;27;36450;-76
2022/08/26 08:51:49;;;;;;;5.45;4.47;;;26.80;7.60;;;;;;5164470;27;34329;-76
2022/08/26 08:54:15;;;;;;;15.15;4.95;;;26.80;7.30;;;;;;5108045;27;35828;-76
2022/08/26 08:56:47;;;;;;;7.72;4.00;;;26.80;7.60;;;;;;5122734;27;34130;-77
2022/08/26 08:59:29;;;;;;;4.80;4.18;;;26.80;7.40;;;;;;5146308;27;35685;-75
2022/08/26 09:02:16;;;;;;;4.05;3.60;;;26.70;7.30;;;;;;5147690;27;34162;-76
2022/08/26 09:04:56;;;;;;;4.60;4.20;;;26.80;7.50;;;;;;5143316;27;34114;-76
2022/08/26 09:07:32;;;;;;;5.68;4.57;;;26.80;6.90;;;;;;5145442;27;34281;-76
2022/08/26 09:10:14;;;;;;;5.88;4.70;;;26.90;7.10;;;;;;5138189;27;34274;-77
2022/08/26 09:12:42;;;;;;;5.75;4.47;;;27.00;7.30;;;;;;5143362;27;34201;-76
2022/08/26 09:15:32;;;;;;;7.28;4.40;;;27.00;7.30;;;;;;5144641;27;34122;-77
2022/08/26 09:18:16;;;;;;;6.95;4.10;;;27.00;6.40;;;;;;5150867;27;34474;-77
2022/08/26 09:20:55;;;;;;;8.57;4.40;;;27.10;7.40;;;;;;5129387;27;36039;-78
2022/08/26 09:23:22;;;;;;;4.25;3.85;;;27.10;6.20;;;;;;5145527;27;34180;-77
2022/08/26 09:25:51;;;;;;;5.10;4.60;;;27.10;7.20;;;;;;5134281;27;34303;-76
2022/08/26 09:28:20;;;;;;;5.05;3.85;;;27.10;7.10;;;;;;5143189;27;34476;-75
2022/08/26 09:30:59;;;;;;;6.45;4.25;;;27.10;7.00;;;;;;5137950;27;35780;-77
2022/08/26 09:33:29;;;;;;;4.85;4.35;;;27.00;7.00;;;;;;5154697;27;34441;-77
2022/08/26 09:36:22;;;;;;;6.03;3.95;;;27.00;6.90;;;;;;5122812;27;34681;-77
2022/08/26 09:38:52;;;;;;;5.60;4.45;;;27.00;6.60;;;;;;5157082;27;34138;-76
2022/08/26 09:41:24;;;;;;;6.28;4.78;;;26.90;6.90;;;;;;5140597;27;35644;-77
2022/08/26 09:44:10;;;;;;;6.72;4.97;;;26.80;6.80;;;;;;5124710;27;35040;-75
2022/08/26 09:46:41;;;;;;;7.45;4.70;;;26.60;7.10;;;;;;5140605;27;35259;-76
2022/08/26 09:49:25;;;;;;;6.43;5.30;;;26.60;7.20;;;;;;5160278;27;34385;-77
2022/08/26 09:52:10;;;;;;;6.85;5.00;;;26.50;7.00;;;;;;5160476;27;34318;-76
2022/08/26 09:54:37;;;;;;;9.13;5.05;;;26.40;7.60;;;;;;5125788;27;34492;-75
2022/08/26 09:57:24;;;;;;;6.25;5.47;;;26.40;7.80;;;;;;5135585;27;34419;-75
2022/08/26 09:59:51;;;;;;;11.10;5.72;;;26.30;8.00;;;;;;5138558;27;34141;-76
2022/08/26 10:02:35;;;;;;;7.85;5.40;;;26.30;7.60;;;;;;5142091;27;35898;-76
2022/08/26 10:05:06;;;;;;;11.13;5.45;;;26.20;8.10;;;;;;5126927;27;34319;-76
2022/08/26 10:07:43;;;;;;;9.68;5.93;;;26.20;7.80;;;;;;5137231;27;34317;-75
2022/08/26 10:10:16;;;;;;;4.97;4.47;;;26.20;7.80;;;;;;5116755;27;34276;-77
2022/08/26 10:12:53;;;;;;;8.25;5.55;;;26.10;7.90;;;;;;5136599;27;34192;-77
2022/08/26 10:15:22;;;;;;;8.85;4.95;;;26.00;7.90;;;;;;5138583;27;34263;-76
2022/08/26 10:17:58;;;;;;;7.07;5.07;;;25.90;7.70;;;;;;5144832;27;34297;-76
2022/08/26 10:20:27;;;;;;;5.07;4.43;;;25.90;7.80;;;;;;5144088;27;34183;-77
2022/08/26 10:23:12;;;;;;;7.38;5.32;;;25.90;7.90;;;;;;5140670;27;35711;-77
2022/08/26 10:26:00;;;;;;;7.72;5.50;;;25.90;8.10;;;;;;5165313;27;33987;-76
2022/08/26 10:28:47;;;;;;;7.57;5.75;;;25.80;8.00;;;;;;5129248;27;34327;-77
2022/08/26 10:31:44;;;;;;;10.32;4.60;;;25.70;8.20;;;;;;5137615;27;34404;-76
2022/08/26 10:34:11;;;;;;;6.95;4.20;;;25.60;8.60;;;;;;5139266;27;34616;-76
2022/08/26 10:36:48;;;;;;;6.10;4.00;;;25.60;8.00;;;;;;5139843;27;34251;-76
2022/08/26 10:39:41;;;;;;;4.95;4.25;;;25.60;8.50;;;;;;5144021;27;34217;-77
2022/08/26 10:42:16;;;;;;;4.10;3.80;;;25.50;8.40;;;;;;5162528;27;34150;-75
2022/08/26 10:44:43;;;;;;;4.97;4.03;;;25.50;8.70;;;;;;5139993;27;35758;-75
2022/08/26 10:47:17;;;;;;;4.65;4.15;;;25.50;8.30;;;;;;5145049;27;34207;-75
2022/08/26 10:49:46;;;;;;;10.23;4.28;;;25.50;8.80;;;;;;5164580;27;34163;-76
2022/08/26 10:52:22;;;;;;;6.20;4.10;;;25.50;8.70;;;;;;5133434;27;34455;-78
2022/08/26 10:55:00;;;;;;;7.75;4.80;;;25.50;9.90;;;;;;5159450;27;34153;-77
2022/08/26 10:57:46;;;;;;;6.90;4.97;;;25.40;11.60;;;;;;5130190;27;34198;-77
2022/08/26 11:03:28;;;;;;;6.90;5.32;;;25.20;11.00;;;;;;5161496;27;34102;-79
2022/08/26 11:06:20;;;;;;;5.63;4.90;;;25.10;12.20;;;;;;5115549;27;35945;-77
2022/08/26 11:08:48;;;;;;;6.13;5.53;;;25.00;13.90;;;;;;5144271;27;34360;-78
2022/08/26 11:11:50;;;;;;;5.43;4.85;;;24.90;11.30;;;;;;5145659;27;34169;-78
2022/08/26 11:14:34;;;;;;;6.75;5.50;;;24.90;15.10;;;;;;5139128;27;34622;-79
2022/08/26 11:17:01;;;;;;;6.88;5.00;;;24.70;13.60;;;;;;5163678;27;35703;-76
2022/08/26 11:19:58;;;;;;;6.97;5.90;;;24.60;11.40;;;;;;5160318;27;34453;-77
2022/08/26 11:22:37;;;;;;;6.18;5.03;;;24.60;14.20;;;;;;5160972;27;34387;-79
2022/08/26 11:25:07;;;;;;;5.78;4.65;;;24.50;13.00;;;;;;5155450;27;34182;-78
2022/08/26 11:27:55;;;;;;;6.78;5.20;;;24.40;12.20;;;;;;5144074;27;35920;-77
2022/08/26 11:30:41;;;;;;;6.05;5.00;;;24.40;14.50;;;;;;5141381;27;34366;-76
2022/08/26 11:33:07;;;;;;;6.82;5.00;;;24.30;14.10;;;;;;5137258;27;34350;-78
2022/08/26 11:35:50;;;;;;;6.35;5.10;;;24.40;12.10;;;;;;5141630;27;34184;-76
2022/08/26 11:38:24;;;;;;;6.75;5.47;;;24.30;14.30;;;;;;5140246;27;36544;-76
2022/08/26 11:41:09;;;;;;;7.70;4.95;;;24.40;13.20;;;;;;5143545;27;34611;-77
2022/08/26 11:43:38;;;;;;;9.55;5.45;;;24.40;13.60;;;;;;5141300;27;34340;-76
2022/08/26 11:46:07;;;;;;;6.40;4.95;;;24.40;12.10;;;;;;5145191;27;34348;-76
2022/08/26 11:48:37;;;;;;;5.03;4.53;;;24.40;12.20;;;;;;5123122;27;36843;-76
2022/08/26 11:51:07;;;;;;;5.22;4.72;;;24.50;12.60;;;;;;5140010;27;34164;-77
2022/08/26 11:53:37;;;;;;;4.72;4.10;;;24.60;12.50;;;;;;5101861;27;34363;-76
2022/08/26 11:56:11;;;;;;;5.40;4.40;;;24.60;12.30;;;;;;5127697;27;34625;-77
2022/08/26 11:58:42;;;;;;;4.07;3.67;;;24.60;12.00;;;;;;5144492;27;34530;-78
2022/08/26 12:01:10;;;;;;;4.32;3.83;;;24.70;12.40;;;;;;5112145;27;34075;-77
2022/08/26 12:03:44;;;;;;;4.55;4.00;;;24.70;11.90;;;;;;5167991;27;34329;-77
2022/08/26 12:06:27;;;;;;;6.32;3.67;;;24.80;11.50;;;;;;5147155;27;34106;-76
2022/08/26 12:08:58;;;;;;;6.90;4.20;;;24.70;12.50;;;;;;5143833;27;35687;-78
2022/08/26 12:11:27;;;;;;;5.30;3.78;;;24.80;11.60;;;;;;5162639;27;34078;-75
2022/08/26 12:13:56;;;;;;;4.72;4.07;;;24.90;11.50;;;;;;5140452;27;34639;-79
2022/08/26 12:16:25;;;;;;;6.60;4.35;;;24.90;11.50;;;;;;5115314;27;34754;-77
2022/08/26 12:18:52;;;;;;;5.22;4.35;;;24.90;11.20;;;;;;5142277;27;35917;-79
2022/08/26 12:21:21;;;;;;;6.57;5.10;;;24.90;11.10;;;;;;5147752;27;34264;-76
2022/08/26 12:23:51;;;;;;;5.10;4.60;;;24.90;11.30;;;;;;5143355;27;34334;-76
2022/08/26 12:26:26;;;;;;;5.10;4.60;;;25.00;11.20;;;;;;5121297;27;34337;-75
2022/08/26 12:28:57;;;;;;;5.03;3.65;;;25.00;12.00;;;;;;5135725;27;36229;-77
2022/08/26 12:31:31;;;;;;;4.53;3.92;;;25.10;11.00;;;;;;5140473;27;34312;-77
2022/08/26 12:34:01;;;;;;;3.63;3.30;;;25.20;10.60;;;;;;5141526;27;34307;-75
2022/08/26 12:36:32;;;;;;;3.45;3.00;;;25.20;10.40;;;;;;5145170;27;34087;-76
2022/08/26 12:39:09;;;;;;;4.28;3.67;;;25.40;10.40;;;;;;5119437;27;35811;-76
2022/08/26 12:41:46;;;;;;;3.83;3.00;;;25.50;10.20;;;;;;5167337;27;34121;-77
2022/08/26 12:44:32;;;;;;;5.15;3.47;;;25.60;10.40;;;;;;5122282;27;34474;-76
2022/08/26 12:47:07;;;;;;;4.50;3.47;;;25.60;9.70;;;;;;5148690;27;34121;-75
2022/08/26 12:49:34;;;;;;;5.07;3.20;;;25.80;9.70;;;;;;5118599;27;35655;-74
2022/08/26 12:52:01;;;;;;;4.30;2.65;;;25.80;9.40;;;;;;5136669;27;34091;-75
2022/08/26 12:54:57;;;;;;;2.85;2.50;;;25.90;9.20;;;;;;5146355;27;34216;-77
2022/08/26 12:57:13;;;;;;;2.80;2.42;;;26.00;9.30;;;;;;5108610;27;34330;-77
2022/08/26 12:59:39;;;;;;;2.50;2.28;;;26.10;9.40;;;;;;5138885;27;34856;-76
2022/08/26 13:02:05;;;;;;;3.03;2.63;;;26.20;9.20;;;;;;5116755;27;34129;-77
2022/08/26 13:04:36;;;;;;;3.50;2.35;;;26.30;9.00;;;;;;5146751;27;34269;-76
2022/08/26 13:07:20;;;;;;;2.50;2.30;;;26.40;8.60;;;;;;5109257;27;34535;-78
2022/08/26 13:09:47;;;;;;;2.83;2.22;;;26.50;7.80;;;;;;5146040;27;35019;-75
2022/08/26 13:12:26;;;;;;;2.63;2.15;;;26.60;8.20;;;;;;5145742;27;34225;-77